Flight Track Log - Related Links

Times and Time Zones

All times are in EDT time to prevent confusion due to time zone crossing. See the SWA714 flight status page for this flight to view local times or setup timezone preferences in your user account.

Time Position Orientation Groundspeed Altitude Reporting Facility
EDT Latitude Longitude Course Direction KTS MPH feet Rate Location/Type
Mon 05:40:28 PM 32.8000 -96.7833 128° Southeast 198 228 4,200  Level Dallas / Fort Worth TRACON
Mon 05:41:34 PM 32.7333 -96.7833 180° South 214 246 6,700 2,372 Climbing Dallas / Fort Worth TRACON
Mon 05:43:20 PM 32.6192 -96.8361 201° Southwest 270 311 11,000 2,566 Climbing Fort Worth Center
Mon 05:44:20 PM 32.6364 -96.9447 281° West 265 305 13,800 2,850 Climbing Fort Worth Center
Mon 05:45:20 PM 32.6761 -97.0358 297° West 293 337 16,700 2,600 Climbing Fort Worth Center
Mon 05:46:20 PM 32.7225 -97.1467 296° West 328 377 19,000 1,800 Climbing Fort Worth Center
Mon 05:47:20 PM 32.7497 -97.2653 285° West 359 413 20,300 1,750 Climbing Fort Worth Center
Mon 05:48:20 PM 32.7769 -97.3886 285° West 386 444 22,500 2,050 Climbing Fort Worth Center
Mon 05:49:20 PM 32.8061 -97.5147 285° West 398 458 24,400 1,750 Climbing Fort Worth Center
Mon 05:50:20 PM 32.8331 -97.6383 285° West 393 452 26,000 1,450 Climbing Fort Worth Center
Mon 05:51:20 PM 32.8619 -97.7672 285° West 401 461 27,300 1,250 Climbing Fort Worth Center
Mon 05:52:20 PM 32.8931 -97.8958 286° West 401 461 28,500 1,300 Climbing Fort Worth Center
Mon 05:53:20 PM 32.9153 -98.0122 283° West 401 461 29,900 1,450 Climbing Fort Worth Center
Mon 05:54:20 PM 32.9439 -98.1411 285° West 401 461 31,400 1,250 Climbing Fort Worth Center
Mon 05:55:20 PM 32.9725 -98.2678 285° West 401 461 32,400 1,300 Climbing Fort Worth Center
Mon 05:56:20 PM 33.0006 -98.3967 285° West 396 456 34,000 800 Climbing Fort Worth Center
Mon 05:57:20 PM 33.0267 -98.5283 283° West 382 440 34,000  Level Fort Worth Center
Mon 05:58:20 PM 33.0567 -98.6578 285° West 389 448 34,000 250 Level Fort Worth Center
Mon 05:59:20 PM 33.0806 -98.7769 283° West 389 448 34,500 500 Climbing Fort Worth Center
Mon 06:00:20 PM 33.1064 -98.8989 284° West 389 448 35,000 400 Climbing Fort Worth Center
Mon 06:01:20 PM 33.1319 -99.0183 284° West 383 441 35,300 350 Climbing Fort Worth Center
Mon 06:02:20 PM 33.1575 -99.1406 284° West 376 433 35,700 350 Climbing Fort Worth Center
Mon 06:03:20 PM 33.1850 -99.2628 285° West 381 438 36,000 150 Climbing Fort Worth Center
Mon 06:04:20 PM 33.2081 -99.3872 283° West 381 438 36,000  Level Fort Worth Center
Mon 06:05:20 PM 33.2333 -99.5094 284° West 381 438 36,000  Level Fort Worth Center
Mon 06:06:20 PM 33.2583 -99.6319 284° West 381 438 36,000  Level Fort Worth Center
Mon 06:07:20 PM 33.2833 -99.7542 284° West 376 433 36,000  Level Fort Worth Center
Mon 06:08:20 PM 33.3078 -99.8817 283° West 381 438 36,000 -500 Level Fort Worth Center
Mon 06:09:20 PM 33.3325 -100.0092 283° West 391 450 35,000 -1,000 Descending Fort Worth Center
Mon 06:10:20 PM 33.3569 -100.1342 283° West 391 450 34,000 500 Descending Fort Worth Center
Mon 06:11:20 PM 33.3833 -100.2544 285° West 391 450 36,000 -950 Climbing Fort Worth Center
Mon 06:12:20 PM 33.4078 -100.3794 283° West 391 450 32,100 -2,450 Descending Fort Worth Center
Mon 06:13:20 PM 33.4317 -100.5097 282° West 397 457 31,100 -1,200 Descending Fort Worth Center
Mon 06:14:20 PM 33.4597 -100.6353 285° West 397 457 29,700 -2,304 Descending Fort Worth Center
Mon 06:15:25 PM 33.4772 -100.7656 279° West 386 444 26,300 -3,700 Descending Fort Worth Center
Mon 06:16:20 PM 33.5053 -100.8886 285° West 392 451 22,300 -4,438 Descending Fort Worth Center
Mon 06:16:38 PM 33.5125 -100.9286 282° West 394 453 20,900 -4,000 Descending Fort Worth Center
Mon 06:17:20 PM 33.5306 -101.0217 283° West 397 457 18,300 -4,299 Descending Fort Worth Center
Mon 06:17:45 PM 33.5414 -101.0819 282° West 409 471 16,100 -4,000 Descending Fort Worth Center
Mon 06:18:20 PM 33.5544 -101.1322 287° West 397 457 14,300 -4,000 Descending Fort Worth Center
Mon 06:18:45 PM 33.5628 -101.2050 278° West 377 434 12,100 -4,000 Descending Fort Worth Center
Mon 06:19:20 PM 33.5797 -101.2656 289° West 384 442 10,300 -2,164 Descending Fort Worth Center
Mon 06:19:46 PM 33.5844 -101.3181 276° West 349 402 9,900 -500 Descending Fort Worth Center
Mon 06:20:20 PM 33.5956 -101.3608 287° West 346 398 9,800 -1,000 Descending Fort Worth Center
Mon 06:20:46 PM 33.6044 -101.4111 282° West 270 311 8,900 -1,900 Descending Fort Worth Center
Mon 06:21:20 PM 33.6133 -101.4589 283° West 294 338 7,900 -1,791 Descending Fort Worth Center
Mon 06:21:53 PM 33.6222 -101.5092 282° West 275 316 6,900 -1,600 Descending Fort Worth Center
Mon 06:22:20 PM 33.6294 -101.5394 286° West 275 316 6,300 -1,574 Descending Fort Worth Center
Mon 06:22:54 PM 33.6378 -101.6022 279° West 270 311 5,300 -1,600 Descending Fort Worth Center
Mon 06:23:20 PM 33.6472 -101.6353 289° West 270 311 4,700 -900 Descending Fort Worth Center
Mon 06:23:54 PM 33.6558 -101.6856 282° West 252 290 4,400 -300 Descending Fort Worth Center
Mon 06:24:20 PM 33.6594 -101.7031 284° West 249 287 4,400 -197 Level Fort Worth Center
Mon 06:24:55 PM 33.6622 -101.7433 275° West 138 159 4,200 -600 Descending Fort Worth Center
Mon 06:25:20 PM 33.6617 -101.7606 268° West 178 205 3,800 -800 Descending Fort Worth Center
Mon 06:25:55 PM 33.6606 -101.7906 267° West 123 142 3,400 -600 Descending Fort Worth Center
Mon 06:26:20 PM 33.6625 -101.7981 287° West 141 162 3,200 -480 Descending Fort Worth Center
Mon 06:31:00 PM 33.6500 -101.8167 270° West  Level FlightAware Approximate
Mon 06:38:00 PM 33.6637 -101.8206 270° West  Level Estimated
Mon 06:39:00 PM 33.6637 -101.8206 270° West  Level Estimated
Mon 06:40:00 PM 33.6637 -101.8206 270° West  Level Estimated
Mon 06:41:00 PM 33.6637 -101.8206 270° West  Level Estimated

Login

Don't have an account? Register now (free) for customized features, flight alerts, and more!